In Rescue
 
Open Full Screen Window  High Contrast Mode
May 25, 2022 9:19 PM EDT
Weather Information
Wind Direction
  ---
Wind Speed
  00 kt (0 mph)
Wind Gust
  00 kt (0 mph)
Altimeter
30.25 in
Visibility
10 SM
Temperature
14° C
57° F
Dewpoint
10° C
50° F
Humidity
77%
Sky Condition
Missing
VFR

METAR KFSO 260119Z AUTO 00000KT 10SM 14/10 A3025 RMK AO2 T01370101

FAA Disclaimer: The data displayed is for advisory purposes only and is not to be used for flight planning or operations.
Missing Cloud Data